createdAt,value
2022-11-05T00:02:07.731Z,14.23
2022-11-05T00:07:36.796Z,13.61
2022-11-05T00:13:06.068Z,12.26
2022-11-05T00:18:09.076Z,12.92
2022-11-05T00:23:30.924Z,13.36
2022-11-05T00:28:35.467Z,13.77
2022-11-05T00:33:39.905Z,13.39
2022-11-05T00:38:42.814Z,12.02
2022-11-05T00:44:12.340Z,12.98
2022-11-05T00:49:30.194Z,13.11
2022-11-05T00:54:33.109Z,13.69
2022-11-05T00:59:36.000Z,13.52
2022-11-05T01:04:38.910Z,13.49
2022-11-05T01:09:41.809Z,13.65
2022-11-05T01:14:44.713Z,13.61
2022-11-05T01:19:47.617Z,13.80
2022-11-05T01:24:50.731Z,13.79
2022-11-05T01:29:53.630Z,13.74
2022-11-05T01:34:56.537Z,13.49
2022-11-05T01:39:59.540Z,13.69
2022-11-05T01:45:25.486Z,12.15
2022-11-05T01:50:30.537Z,12.55
2022-11-05T01:55:38.360Z,13.26
2022-11-05T02:00:42.973Z,13.23
2022-11-05T02:05:48.573Z,13.12
2022-11-05T02:10:51.889Z,13.20
2022-11-05T02:16:26.024Z,12.88
2022-11-05T02:22:10.497Z,12.82
2022-11-05T02:27:19.238Z,12.91
2022-11-05T02:32:28.496Z,12.63
2022-11-05T02:37:41.739Z,12.77
2022-11-05T02:43:03.706Z,12.67
2022-11-05T02:48:25.231Z,12.60
2022-11-05T02:53:42.784Z,12.81
2022-11-05T02:58:45.683Z,12.78
2022-11-05T03:03:57.188Z,12.63
2022-11-05T03:09:12.277Z,12.44
2022-11-05T03:14:26.992Z,12.32
2022-11-05T03:19:58.345Z,12.39
2022-11-05T03:25:08.164Z,12.35
2022-11-05T03:30:12.919Z,12.61
2022-11-05T03:35:23.691Z,12.32
2022-11-05T03:40:27.562Z,12.32
2022-11-05T03:45:36.405Z,12.36
2022-11-05T03:51:21.699Z,12.42
2022-11-05T03:56:45.495Z,12.27
2022-11-05T04:01:49.974Z,11.93
2022-11-05T04:07:11.678Z,12.24
2022-11-05T04:12:33.327Z,12.05
2022-11-05T04:17:36.237Z,11.63
2022-11-05T04:22:57.973Z,11.75
2022-11-05T04:28:00.878Z,11.68
2022-11-05T04:33:03.782Z,11.34
2022-11-05T04:38:12.352Z,11.28
2022-11-05T04:43:18.780Z,11.51
2022-11-05T04:48:22.122Z,11.24
2022-11-05T04:53:26.245Z,11.04
2022-11-05T04:58:29.153Z,11.28
2022-11-05T05:03:32.066Z,11.32
2022-11-05T05:08:35.427Z,11.29
2022-11-05T05:13:38.274Z,10.98
2022-11-05T05:18:46.030Z,11.25
2022-11-05T05:23:49.408Z,11.00
2022-11-05T05:28:53.736Z,10.93
2022-11-05T05:33:56.861Z,11.11
2022-11-05T05:38:59.864Z,11.08
2022-11-05T05:44:05.425Z,10.99
2022-11-05T05:49:12.667Z,11.36
2022-11-05T05:54:16.255Z,11.82
2022-11-05T05:59:19.157Z,11.62
2022-11-05T06:04:22.376Z,11.76
2022-11-05T06:09:25.383Z,11.64
2022-11-05T06:14:28.383Z,11.48
2022-11-05T06:19:31.387Z,11.72
2022-11-05T06:24:34.441Z,11.77
2022-11-05T06:29:37.505Z,11.91
2022-11-05T06:34:43.067Z,11.99
2022-11-05T06:39:45.973Z,12.06
2022-11-05T06:44:48.983Z,12.38
2022-11-05T06:49:51.894Z,12.21
2022-11-05T06:54:54.889Z,12.44
2022-11-05T07:00:02.279Z,12.85
2022-11-05T07:05:11.151Z,12.84
2022-11-05T07:10:17.223Z,12.66
2022-11-05T07:15:20.744Z,12.86
2022-11-05T07:20:23.642Z,12.81
2022-11-05T07:25:26.766Z,12.84
2022-11-05T07:30:30.986Z,12.92
2022-11-05T07:35:33.992Z,13.03
2022-11-05T07:40:37.102Z,12.93
2022-11-05T07:45:40.112Z,12.84
2022-11-05T07:50:43.010Z,12.81
2022-11-05T07:55:46.222Z,12.71
2022-11-05T08:00:49.269Z,12.66
2022-11-05T08:05:52.393Z,12.68
2022-11-05T08:11:03.156Z,12.72
2022-11-05T08:16:06.694Z,12.76
2022-11-05T08:21:09.755Z,12.80
2022-11-05T08:26:12.658Z,13.10
2022-11-05T08:31:18.069Z,13.28
2022-11-05T08:36:20.934Z,13.37
2022-11-05T08:41:24.442Z,13.40
2022-11-05T08:46:27.657Z,13.35
2022-11-05T08:51:31.249Z,13.51
2022-11-05T08:56:34.282Z,13.38
2022-11-05T09:01:37.552Z,13.46
2022-11-05T09:06:40.611Z,13.38
2022-11-05T09:12:10.562Z,13.73
2022-11-05T09:17:17.612Z,14.24
2022-11-05T09:22:20.555Z,14.27
2022-11-05T09:27:23.450Z,14.61
2022-11-05T09:32:26.365Z,15.01
2022-11-05T09:37:29.975Z,14.88
2022-11-05T09:42:41.202Z,14.84
2022-11-05T09:47:52.579Z,14.92
2022-11-05T09:52:55.481Z,14.62
2022-11-05T09:58:06.780Z,14.49
2022-11-05T10:03:15.778Z,14.57
2022-11-05T10:08:18.740Z,14.94
2022-11-05T10:13:29.929Z,15.05
2022-11-05T10:18:47.585Z,15.13
2022-11-05T10:23:50.484Z,15.17
2022-11-05T10:28:54.251Z,15.34
2022-11-05T10:34:02.447Z,15.65
2022-11-05T10:39:15.087Z,15.85
2022-11-05T10:44:19.333Z,15.86
2022-11-05T10:49:46.580Z,15.88
2022-11-05T10:54:51.267Z,16.13
2022-11-05T10:59:54.235Z,16.34
2022-11-05T11:04:58.566Z,16.54
2022-11-05T11:10:01.575Z,16.75
2022-11-05T11:15:14.517Z,16.91
2022-11-05T11:20:30.733Z,16.87
2022-11-05T11:25:45.294Z,16.97
2022-11-05T11:31:03.571Z,15.01
2022-11-05T11:36:07.389Z,14.51
2022-11-05T11:41:26.173Z,15.98
2022-11-05T11:46:33.378Z,16.95
2022-11-05T11:51:49.446Z,17.16
2022-11-05T11:56:53.320Z,15.24
2022-11-05T12:02:14.419Z,15.61
2022-11-05T12:07:53.400Z,16.94
2022-11-05T12:13:27.432Z,17.23
2022-11-05T12:19:12.324Z,15.34
2022-11-05T12:24:40.517Z,15.27
2022-11-05T12:30:17.728Z,16.81
2022-11-05T12:36:08.552Z,16.76
2022-11-05T12:41:33.274Z,15.13
2022-11-05T12:46:56.660Z,16.47
2022-11-05T12:52:05.508Z,17.11
2022-11-05T12:57:12.870Z,15.87
2022-11-05T13:02:26.164Z,14.66
2022-11-05T13:07:36.127Z,15.94
2022-11-05T13:12:42.557Z,16.65
2022-11-05T13:18:30.676Z,16.87
2022-11-05T13:23:42.592Z,15.53
2022-11-05T13:28:55.778Z,15.52
2022-11-05T13:34:05.255Z,16.67
2022-11-05T13:39:35.188Z,16.91
2022-11-05T13:44:50.325Z,14.79
2022-11-05T13:49:59.170Z,14.59
2022-11-05T13:55:08.218Z,15.81
2022-11-05T14:00:19.628Z,16.36
2022-11-05T14:05:28.562Z,16.81
2022-11-05T14:10:37.232Z,16.29
2022-11-05T14:15:40.316Z,14.86
2022-11-05T14:20:56.424Z,15.77
2022-11-05T14:26:34.962Z,16.41
2022-11-05T14:32:10.506Z,16.80
2022-11-05T14:37:13.642Z,16.46
2022-11-05T14:42:30.880Z,14.39
2022-11-05T14:47:39.785Z,14.15
2022-11-05T14:52:54.128Z,15.57
2022-11-05T14:57:57.104Z,16.30
2022-11-05T15:03:24.418Z,16.64
2022-11-05T15:08:51.863Z,16.83
2022-11-05T15:14:08.605Z,14.81
2022-11-05T15:19:21.735Z,13.98
2022-11-05T15:24:28.283Z,15.37
2022-11-05T15:29:33.542Z,16.14
2022-11-05T15:34:36.537Z,16.46
2022-11-05T15:39:41.132Z,16.66
2022-11-05T15:44:46.594Z,16.01
2022-11-05T15:49:57.356Z,14.09
2022-11-05T15:55:13.010Z,15.03
2022-11-05T16:00:22.661Z,15.89
2022-11-05T16:05:33.958Z,16.30
2022-11-05T16:10:38.944Z,16.61
2022-11-05T16:15:53.901Z,16.01
2022-11-05T16:21:02.521Z,13.80
2022-11-05T16:26:05.636Z,13.35
2022-11-05T16:31:08.538Z,14.75
2022-11-05T16:36:12.032Z,15.57
2022-11-05T16:41:16.891Z,16.05
2022-11-05T16:46:19.917Z,16.36
2022-11-05T16:51:27.260Z,16.04
2022-11-05T16:56:30.981Z,13.87
2022-11-05T17:01:39.828Z,13.21
2022-11-05T17:06:44.026Z,14.80
2022-11-05T17:11:46.960Z,16.08
2022-11-05T17:16:50.040Z,16.58
2022-11-05T17:21:55.114Z,14.60
2022-11-05T17:26:58.097Z,13.80
2022-11-05T17:32:01.206Z,15.77
2022-11-05T17:37:04.216Z,16.46
2022-11-05T17:42:07.117Z,14.74
2022-11-05T17:47:10.228Z,13.79
2022-11-05T17:52:13.336Z,15.09
2022-11-05T17:57:16.446Z,15.86
2022-11-05T18:02:19.596Z,16.28
2022-11-05T18:07:22.765Z,16.41
2022-11-05T18:12:25.668Z,14.58
2022-11-05T18:17:30.000Z,14.29
2022-11-05T18:22:32.909Z,15.55
2022-11-05T18:27:36.047Z,16.13
2022-11-05T18:32:39.126Z,15.67
2022-11-05T18:37:42.501Z,13.51
2022-11-05T18:42:45.871Z,13.83
2022-11-05T18:47:48.864Z,15.14
2022-11-05T18:52:51.720Z,15.62
2022-11-05T18:57:54.672Z,15.93
2022-11-05T19:02:58.235Z,16.20
2022-11-05T19:08:01.298Z,15.62
2022-11-05T19:13:04.201Z,13.34
2022-11-05T19:18:07.834Z,13.20
2022-11-05T19:23:10.991Z,14.69
2022-11-05T19:28:14.235Z,15.41
2022-11-05T19:33:17.578Z,15.84
2022-11-05T19:38:20.566Z,15.29
2022-11-05T19:43:23.674Z,13.41
2022-11-05T19:48:27.768Z,14.36
2022-11-05T19:53:30.714Z,15.31
2022-11-05T19:58:35.139Z,15.75
2022-11-05T20:03:38.719Z,15.68
2022-11-05T20:08:59.830Z,13.59
2022-11-05T20:14:06.367Z,13.75
2022-11-05T20:19:14.415Z,14.99
2022-11-05T20:24:24.283Z,15.50
2022-11-05T20:29:35.039Z,14.75
2022-11-05T20:34:38.898Z,13.29
2022-11-05T20:39:41.779Z,14.41
2022-11-05T20:44:44.704Z,15.08
2022-11-05T20:49:47.609Z,15.44
2022-11-05T20:54:50.514Z,14.75
2022-11-05T20:59:53.517Z,12.64
2022-11-05T21:04:56.422Z,13.29
2022-11-05T21:09:59.327Z,14.40
2022-11-05T21:15:02.539Z,15.01
2022-11-05T21:20:06.293Z,15.37
2022-11-05T21:25:10.383Z,14.19
2022-11-05T21:30:13.660Z,12.87
2022-11-05T21:35:19.281Z,14.06
2022-11-05T21:40:22.488Z,14.76
2022-11-05T21:45:25.497Z,15.09
2022-11-05T21:50:47.351Z,13.48
2022-11-05T21:56:08.986Z,12.44
2022-11-05T22:01:13.921Z,13.72
2022-11-05T22:06:17.044Z,14.29
2022-11-05T22:11:20.153Z,14.57
2022-11-05T22:16:23.057Z,13.89
2022-11-05T22:21:26.061Z,11.80
2022-11-05T22:26:28.968Z,12.63
2022-11-05T22:31:36.009Z,13.60
2022-11-05T22:36:39.688Z,14.06
2022-11-05T22:41:43.129Z,14.29
2022-11-05T22:46:46.214Z,12.78
2022-11-05T22:51:49.423Z,11.72
2022-11-05T22:56:53.928Z,12.84
2022-11-05T23:01:56.986Z,13.34
2022-11-05T23:07:23.175Z,13.49
2022-11-05T23:12:34.859Z,13.62
2022-11-05T23:17:56.582Z,13.69
2022-11-05T23:23:18.530Z,13.70
2022-11-05T23:28:21.855Z,12.82
2022-11-05T23:33:25.486Z,10.66
2022-11-05T23:38:34.922Z,11.14
2022-11-05T23:43:56.360Z,12.09
2022-11-05T23:48:59.877Z,12.53
2022-11-05T23:54:02.785Z,12.81
2022-11-05T23:59:06.098Z,13.03
